sensor_id;sensor_type;location;lat;lon;timestamp;P1;durP1;ratioP1;P2;durP2;ratioP2
12363;SDS011;6246;50.826;4.712;2023-02-01T00:02:01;16.07;;;11.37;;
12363;SDS011;6246;50.826;4.712;2023-02-01T00:04:27;16.37;;;12.23;;
12363;SDS011;6246;50.826;4.712;2023-02-01T00:06:53;16.47;;;12.23;;
12363;SDS011;6246;50.826;4.712;2023-02-01T00:09:19;19.23;;;12.23;;
12363;SDS011;6246;50.826;4.712;2023-02-01T00:11:45;20.07;;;12.37;;
12363;SDS011;6246;50.826;4.712;2023-02-01T00:14:11;18.00;;;11.73;;
12363;SDS011;6246;50.826;4.712;2023-02-01T00:16:38;16.90;;;11.53;;
12363;SDS011;6246;50.826;4.712;2023-02-01T00:19:06;17.20;;;11.67;;
12363;SDS011;6246;50.826;4.712;2023-02-01T00:21:32;17.83;;;11.67;;
12363;SDS011;6246;50.826;4.712;2023-02-01T00:23:58;16.10;;;12.40;;
12363;SDS011;6246;50.826;4.712;2023-02-01T00:26:32;16.53;;;12.20;;
12363;SDS011;6246;50.826;4.712;2023-02-01T00:28:58;15.00;;;11.17;;
12363;SDS011;6246;50.826;4.712;2023-02-01T00:31:24;17.37;;;12.07;;
12363;SDS011;6246;50.826;4.712;2023-02-01T00:33:50;19.00;;;11.53;;
12363;SDS011;6246;50.826;4.712;2023-02-01T00:36:17;18.50;;;12.03;;
12363;SDS011;6246;50.826;4.712;2023-02-01T00:38:43;15.43;;;10.97;;
12363;SDS011;6246;50.826;4.712;2023-02-01T00:41:10;15.80;;;11.13;;
12363;SDS011;6246;50.826;4.712;2023-02-01T00:43:37;14.33;;;11.13;;
12363;SDS011;6246;50.826;4.712;2023-02-01T00:46:03;15.93;;;11.53;;
12363;SDS011;6246;50.826;4.712;2023-02-01T00:48:29;15.87;;;11.60;;
12363;SDS011;6246;50.826;4.712;2023-02-01T00:51:02;19.43;;;11.00;;
12363;SDS011;6246;50.826;4.712;2023-02-01T00:53:28;16.00;;;11.63;;
12363;SDS011;6246;50.826;4.712;2023-02-01T00:55:54;15.30;;;11.10;;
12363;SDS011;6246;50.826;4.712;2023-02-01T00:58:21;15.93;;;11.57;;
12363;SDS011;6246;50.826;4.712;2023-02-01T01:00:54;13.70;;;10.57;;
12363;SDS011;6246;50.826;4.712;2023-02-01T01:03:22;15.07;;;10.57;;
12363;SDS011;6246;50.826;4.712;2023-02-01T01:05:48;16.27;;;11.67;;
12363;SDS011;6246;50.826;4.712;2023-02-01T01:08:15;13.53;;;10.23;;
12363;SDS011;6246;50.826;4.712;2023-02-01T01:10:41;16.37;;;11.17;;
12363;SDS011;6246;50.826;4.712;2023-02-01T01:13:08;17.77;;;10.97;;
12363;SDS011;6246;50.826;4.712;2023-02-01T01:15:37;16.30;;;11.23;;
12363;SDS011;6246;50.826;4.712;2023-02-01T01:18:04;18.20;;;10.97;;
12363;SDS011;6246;50.826;4.712;2023-02-01T01:20:30;18.90;;;10.53;;
12363;SDS011;6246;50.826;4.712;2023-02-01T01:22:56;24.30;;;10.77;;
12363;SDS011;6246;50.826;4.712;2023-02-01T01:25:22;15.43;;;10.87;;
12363;SDS011;6246;50.826;4.712;2023-02-01T01:27:48;14.20;;;9.47;;
12363;SDS011;6246;50.826;4.712;2023-02-01T01:30:14;18.70;;;10.97;;
12363;SDS011;6246;50.826;4.712;2023-02-01T01:32:40;19.70;;;10.03;;
12363;SDS011;6246;50.826;4.712;2023-02-01T01:35:06;17.27;;;10.77;;
12363;SDS011;6246;50.826;4.712;2023-02-01T01:37:32;16.47;;;10.67;;
12363;SDS011;6246;50.826;4.712;2023-02-01T01:40:00;23.90;;;10.53;;
12363;SDS011;6246;50.826;4.712;2023-02-01T01:42:26;17.60;;;10.37;;
12363;SDS011;6246;50.826;4.712;2023-02-01T01:45:00;16.67;;;9.93;;
12363;SDS011;6246;50.826;4.712;2023-02-01T01:47:30;15.30;;;9.80;;
12363;SDS011;6246;50.826;4.712;2023-02-01T01:49:57;13.83;;;9.90;;
12363;SDS011;6246;50.826;4.712;2023-02-01T01:52:23;14.47;;;9.83;;
12363;SDS011;6246;50.826;4.712;2023-02-01T01:54:50;18.43;;;9.40;;
12363;SDS011;6246;50.826;4.712;2023-02-01T01:57:18;15.03;;;9.47;;
12363;SDS011;6246;50.826;4.712;2023-02-01T01:59:50;14.40;;;9.10;;
12363;SDS011;6246;50.826;4.712;2023-02-01T02:02:19;13.63;;;9.63;;
12363;SDS011;6246;50.826;4.712;2023-02-01T02:04:45;13.50;;;9.33;;
12363;SDS011;6246;50.826;4.712;2023-02-01T02:07:13;13.63;;;9.50;;
12363;SDS011;6246;50.826;4.712;2023-02-01T02:09:40;15.97;;;9.30;;
12363;SDS011;6246;50.826;4.712;2023-02-01T02:12:08;15.67;;;9.70;;
12363;SDS011;6246;50.826;4.712;2023-02-01T02:14:34;16.60;;;9.73;;
12363;SDS011;6246;50.826;4.712;2023-02-01T02:40:47;10.60;;;7.73;;
12363;SDS011;6246;50.826;4.712;2023-02-01T02:43:22;10.93;;;8.03;;
12363;SDS011;6246;50.826;4.712;2023-02-01T02:48:53;14.17;;;7.70;;
12363;SDS011;6246;50.826;4.712;2023-02-01T02:51:22;13.13;;;7.93;;
12363;SDS011;6246;50.826;4.712;2023-02-01T02:54:16;14.57;;;7.97;;
12363;SDS011;6246;50.826;4.712;2023-02-01T02:57:02;12.03;;;7.77;;
12363;SDS011;6246;50.826;4.712;2023-02-01T02:59:48;11.07;;;7.13;;
12363;SDS011;6246;50.826;4.712;2023-02-01T03:02:33;14.67;;;7.67;;
12363;SDS011;6246;50.826;4.712;2023-02-01T03:05:18;10.20;;;7.57;;
12363;SDS011;6246;50.826;4.712;2023-02-01T03:12:49;10.63;;;7.43;;
12363;SDS011;6246;50.826;4.712;2023-02-01T03:15:29;15.23;;;7.57;;
12363;SDS011;6246;50.826;4.712;2023-02-01T03:17:57;11.37;;;6.53;;
12363;SDS011;6246;50.826;4.712;2023-02-01T03:20:24;11.33;;;7.17;;
12363;SDS011;6246;50.826;4.712;2023-02-01T03:22:51;18.60;;;7.30;;
12363;SDS011;6246;50.826;4.712;2023-02-01T03:25:21;14.60;;;6.90;;
12363;SDS011;6246;50.826;4.712;2023-02-01T03:27:59;11.67;;;6.30;;
12363;SDS011;6246;50.826;4.712;2023-02-01T03:30:28;21.17;;;7.10;;
12363;SDS011;6246;50.826;4.712;2023-02-01T03:32:55;13.47;;;7.40;;
12363;SDS011;6246;50.826;4.712;2023-02-01T03:37:55;16.37;;;6.93;;
12363;SDS011;6246;50.826;4.712;2023-02-01T03:40:23;11.73;;;6.57;;
12363;SDS011;6246;50.826;4.712;2023-02-01T03:42:52;9.67;;;6.60;;
12363;SDS011;6246;50.826;4.712;2023-02-01T03:45:22;11.83;;;6.73;;
12363;SDS011;6246;50.826;4.712;2023-02-01T03:47:50;11.00;;;6.20;;
12363;SDS011;6246;50.826;4.712;2023-02-01T03:50:19;12.40;;;5.80;;
12363;SDS011;6246;50.826;4.712;2023-02-01T03:52:52;14.37;;;6.13;;
12363;SDS011;6246;50.826;4.712;2023-02-01T03:55:20;16.00;;;6.27;;
12363;SDS011;6246;50.826;4.712;2023-02-01T03:57:51;19.83;;;6.70;;
12363;SDS011;6246;50.826;4.712;2023-02-01T04:00:22;12.83;;;6.23;;
12363;SDS011;6246;50.826;4.712;2023-02-01T04:02:49;9.63;;;6.00;;
12363;SDS011;6246;50.826;4.712;2023-02-01T04:05:15;8.53;;;5.63;;
12363;SDS011;6246;50.826;4.712;2023-02-01T04:07:41;8.07;;;5.70;;
12363;SDS011;6246;50.826;4.712;2023-02-01T04:10:08;10.07;;;5.97;;
12363;SDS011;6246;50.826;4.712;2023-02-01T04:12:34;8.63;;;5.87;;
12363;SDS011;6246;50.826;4.712;2023-02-01T04:15:00;9.67;;;6.00;;
12363;SDS011;6246;50.826;4.712;2023-02-01T04:17:26;10.60;;;5.70;;
12363;SDS011;6246;50.826;4.712;2023-02-01T04:19:52;9.53;;;5.80;;
12363;SDS011;6246;50.826;4.712;2023-02-01T04:22:18;7.13;;;5.23;;
12363;SDS011;6246;50.826;4.712;2023-02-01T04:24:44;6.70;;;5.50;;
12363;SDS011;6246;50.826;4.712;2023-02-01T04:27:10;10.20;;;5.70;;
12363;SDS011;6246;50.826;4.712;2023-02-01T04:29:36;8.83;;;5.93;;
12363;SDS011;6246;50.826;4.712;2023-02-01T04:32:02;10.20;;;5.20;;
12363;SDS011;6246;50.826;4.712;2023-02-01T04:34:28;8.23;;;5.20;;
12363;SDS011;6246;50.826;4.712;2023-02-01T04:36:54;8.83;;;5.10;;
12363;SDS011;6246;50.826;4.712;2023-02-01T04:39:20;7.17;;;5.17;;
12363;SDS011;6246;50.826;4.712;2023-02-01T04:41:46;9.60;;;5.80;;
12363;SDS011;6246;50.826;4.712;2023-02-01T04:44:13;10.57;;;5.53;;
12363;SDS011;6246;50.826;4.712;2023-02-01T04:46:39;12.80;;;5.77;;
12363;SDS011;6246;50.826;4.712;2023-02-01T04:49:05;11.70;;;5.30;;
12363;SDS011;6246;50.826;4.712;2023-02-01T04:51:32;8.10;;;5.30;;
12363;SDS011;6246;50.826;4.712;2023-02-01T04:53:57;6.63;;;4.83;;
12363;SDS011;6246;50.826;4.712;2023-02-01T04:56:23;9.73;;;5.10;;
12363;SDS011;6246;50.826;4.712;2023-02-01T04:58:50;7.60;;;4.90;;
12363;SDS011;6246;50.826;4.712;2023-02-01T05:01:15;6.23;;;4.80;;
12363;SDS011;6246;50.826;4.712;2023-02-01T05:03:41;8.87;;;5.07;;
12363;SDS011;6246;50.826;4.712;2023-02-01T05:06:08;7.30;;;4.60;;
12363;SDS011;6246;50.826;4.712;2023-02-01T05:08:34;8.57;;;5.37;;
12363;SDS011;6246;50.826;4.712;2023-02-01T05:11:00;8.53;;;4.83;;
12363;SDS011;6246;50.826;4.712;2023-02-01T05:13:28;10.53;;;4.80;;
12363;SDS011;6246;50.826;4.712;2023-02-01T05:16:13;7.13;;;4.70;;
12363;SDS011;6246;50.826;4.712;2023-02-01T05:18:39;9.13;;;4.70;;
12363;SDS011;6246;50.826;4.712;2023-02-01T05:21:05;6.57;;;4.60;;
12363;SDS011;6246;50.826;4.712;2023-02-01T05:23:31;5.13;;;4.20;;
12363;SDS011;6246;50.826;4.712;2023-02-01T05:26:00;7.70;;;4.17;;
12363;SDS011;6246;50.826;4.712;2023-02-01T05:28:27;5.87;;;4.23;;
12363;SDS011;6246;50.826;4.712;2023-02-01T05:30:53;12.37;;;4.47;;
12363;SDS011;6246;50.826;4.712;2023-02-01T05:33:19;7.70;;;4.10;;
12363;SDS011;6246;50.826;4.712;2023-02-01T05:35:45;7.70;;;4.13;;
12363;SDS011;6246;50.826;4.712;2023-02-01T05:38:11;6.60;;;4.43;;
12363;SDS011;6246;50.826;4.712;2023-02-01T05:40:37;6.60;;;4.40;;
12363;SDS011;6246;50.826;4.712;2023-02-01T05:43:03;5.70;;;4.13;;
12363;SDS011;6246;50.826;4.712;2023-02-01T05:45:29;5.97;;;4.07;;
12363;SDS011;6246;50.826;4.712;2023-02-01T05:47:55;7.47;;;4.20;;
12363;SDS011;6246;50.826;4.712;2023-02-01T05:50:21;8.10;;;4.00;;
12363;SDS011;6246;50.826;4.712;2023-02-01T05:52:47;6.73;;;4.20;;
12363;SDS011;6246;50.826;4.712;2023-02-01T05:55:13;5.17;;;3.63;;
12363;SDS011;6246;50.826;4.712;2023-02-01T05:57:39;7.20;;;4.07;;
12363;SDS011;6246;50.826;4.712;2023-02-01T06:00:05;5.07;;;3.90;;
12363;SDS011;6246;50.826;4.712;2023-02-01T06:02:32;9.77;;;4.37;;
12363;SDS011;6246;50.826;4.712;2023-02-01T06:04:58;5.53;;;3.50;;
12363;SDS011;6246;50.826;4.712;2023-02-01T06:07:24;6.73;;;3.87;;
12363;SDS011;6246;50.826;4.712;2023-02-01T06:09:50;6.20;;;4.10;;
12363;SDS011;6246;50.826;4.712;2023-02-01T06:12:16;7.93;;;3.40;;
12363;SDS011;6246;50.826;4.712;2023-02-01T06:14:42;7.77;;;3.67;;
12363;SDS011;6246;50.826;4.712;2023-02-01T06:17:08;5.97;;;3.43;;
12363;SDS011;6246;50.826;4.712;2023-02-01T06:19:34;7.97;;;3.70;;
12363;SDS011;6246;50.826;4.712;2023-02-01T06:22:00;8.50;;;3.83;;
12363;SDS011;6246;50.826;4.712;2023-02-01T06:24:26;6.63;;;3.90;;
12363;SDS011;6246;50.826;4.712;2023-02-01T06:26:52;7.00;;;4.00;;
12363;SDS011;6246;50.826;4.712;2023-02-01T06:29:18;5.53;;;3.47;;
12363;SDS011;6246;50.826;4.712;2023-02-01T06:31:44;5.57;;;3.30;;
12363;SDS011;6246;50.826;4.712;2023-02-01T06:34:10;6.03;;;3.83;;
12363;SDS011;6246;50.826;4.712;2023-02-01T06:36:36;5.33;;;3.80;;
12363;SDS011;6246;50.826;4.712;2023-02-01T06:39:03;9.93;;;3.53;;
12363;SDS011;6246;50.826;4.712;2023-02-01T06:41:29;6.27;;;2.97;;
12363;SDS011;6246;50.826;4.712;2023-02-01T06:43:55;7.83;;;3.50;;
12363;SDS011;6246;50.826;4.712;2023-02-01T06:46:21;8.70;;;3.60;;
12363;SDS011;6246;50.826;4.712;2023-02-01T06:48:47;10.53;;;3.53;;
12363;SDS011;6246;50.826;4.712;2023-02-01T06:51:19;7.20;;;3.63;;
12363;SDS011;6246;50.826;4.712;2023-02-01T06:53:45;7.37;;;3.07;;
12363;SDS011;6246;50.826;4.712;2023-02-01T06:56:11;8.13;;;3.50;;
12363;SDS011;6246;50.826;4.712;2023-02-01T06:58:37;5.73;;;3.40;;
12363;SDS011;6246;50.826;4.712;2023-02-01T07:01:05;8.33;;;4.03;;
12363;SDS011;6246;50.826;4.712;2023-02-01T07:03:31;6.17;;;3.10;;
12363;SDS011;6246;50.826;4.712;2023-02-01T07:05:57;6.10;;;3.10;;
12363;SDS011;6246;50.826;4.712;2023-02-01T07:08:24;7.57;;;3.30;;
12363;SDS011;6246;50.826;4.712;2023-02-01T07:10:50;4.83;;;3.20;;
12363;SDS011;6246;50.826;4.712;2023-02-01T07:13:16;4.37;;;2.90;;
12363;SDS011;6246;50.826;4.712;2023-02-01T07:15:42;6.17;;;3.53;;
12363;SDS011;6246;50.826;4.712;2023-02-01T07:18:08;7.37;;;3.10;;
12363;SDS011;6246;50.826;4.712;2023-02-01T07:20:34;6.33;;;2.77;;
12363;SDS011;6246;50.826;4.712;2023-02-01T07:23:00;4.50;;;2.70;;
12363;SDS011;6246;50.826;4.712;2023-02-01T07:25:26;5.27;;;3.20;;
12363;SDS011;6246;50.826;4.712;2023-02-01T07:27:52;5.97;;;3.37;;
12363;SDS011;6246;50.826;4.712;2023-02-01T07:30:18;7.23;;;3.50;;
12363;SDS011;6246;50.826;4.712;2023-02-01T07:32:44;3.63;;;2.80;;
12363;SDS011;6246;50.826;4.712;2023-02-01T07:35:10;3.80;;;2.73;;
12363;SDS011;6246;50.826;4.712;2023-02-01T07:37:36;8.30;;;3.13;;
12363;SDS011;6246;50.826;4.712;2023-02-01T07:40:02;3.53;;;2.53;;
12363;SDS011;6246;50.826;4.712;2023-02-01T07:42:28;5.10;;;2.70;;
12363;SDS011;6246;50.826;4.712;2023-02-01T07:44:54;7.13;;;3.27;;
12363;SDS011;6246;50.826;4.712;2023-02-01T07:47:20;10.50;;;3.27;;
12363;SDS011;6246;50.826;4.712;2023-02-01T07:49:46;8.03;;;2.70;;
12363;SDS011;6246;50.826;4.712;2023-02-01T07:52:12;5.43;;;2.67;;
12363;SDS011;6246;50.826;4.712;2023-02-01T07:54:42;4.67;;;2.83;;
12363;SDS011;6246;50.826;4.712;2023-02-01T07:57:08;6.30;;;2.80;;
12363;SDS011;6246;50.826;4.712;2023-02-01T07:59:36;7.17;;;2.40;;
12363;SDS011;6246;50.826;4.712;2023-02-01T08:02:25;6.23;;;2.90;;
12363;SDS011;6246;50.826;4.712;2023-02-01T08:04:51;3.40;;;2.50;;
12363;SDS011;6246;50.826;4.712;2023-02-01T08:07:18;4.10;;;2.30;;
12363;SDS011;6246;50.826;4.712;2023-02-01T08:09:44;5.30;;;2.40;;
12363;SDS011;6246;50.826;4.712;2023-02-01T08:12:10;4.83;;;2.73;;
12363;SDS011;6246;50.826;4.712;2023-02-01T08:14:36;6.40;;;2.53;;
12363;SDS011;6246;50.826;4.712;2023-02-01T08:17:02;5.77;;;3.00;;
12363;SDS011;6246;50.826;4.712;2023-02-01T08:19:28;5.47;;;2.87;;
12363;SDS011;6246;50.826;4.712;2023-02-01T08:21:54;5.73;;;3.00;;
12363;SDS011;6246;50.826;4.712;2023-02-01T08:24:20;6.20;;;2.97;;
12363;SDS011;6246;50.826;4.712;2023-02-01T08:26:46;9.57;;;3.10;;
12363;SDS011;6246;50.826;4.712;2023-02-01T08:29:12;8.60;;;2.73;;
12363;SDS011;6246;50.826;4.712;2023-02-01T08:31:39;7.47;;;2.63;;
12363;SDS011;6246;50.826;4.712;2023-02-01T08:34:08;6.03;;;2.60;;
12363;SDS011;6246;50.826;4.712;2023-02-01T08:36:35;5.43;;;2.83;;
12363;SDS011;6246;50.826;4.712;2023-02-01T08:39:03;4.60;;;2.60;;
12363;SDS011;6246;50.826;4.712;2023-02-01T08:41:33;4.67;;;2.80;;
12363;SDS011;6246;50.826;4.712;2023-02-01T08:44:00;3.90;;;2.53;;
12363;SDS011;6246;50.826;4.712;2023-02-01T08:46:26;6.20;;;2.87;;
12363;SDS011;6246;50.826;4.712;2023-02-01T08:48:52;5.30;;;3.10;;
12363;SDS011;6246;50.826;4.712;2023-02-01T08:51:19;5.20;;;2.50;;
12363;SDS011;6246;50.826;4.712;2023-02-01T08:53:45;3.17;;;2.30;;
12363;SDS011;6246;50.826;4.712;2023-02-01T08:56:12;6.70;;;2.67;;
12363;SDS011;6246;50.826;4.712;2023-02-01T08:58:38;4.20;;;2.70;;
12363;SDS011;6246;50.826;4.712;2023-02-01T09:01:05;3.80;;;2.30;;
12363;SDS011;6246;50.826;4.712;2023-02-01T09:03:31;6.17;;;2.90;;
12363;SDS011;6246;50.826;4.712;2023-02-01T09:06:04;3.77;;;2.60;;
12363;SDS011;6246;50.826;4.712;2023-02-01T09:08:31;3.20;;;1.93;;
12363;SDS011;6246;50.826;4.712;2023-02-01T09:11:01;3.47;;;2.13;;
12363;SDS011;6246;50.826;4.712;2023-02-01T09:13:27;4.27;;;2.20;;
12363;SDS011;6246;50.826;4.712;2023-02-01T09:15:53;6.80;;;2.80;;
12363;SDS011;6246;50.826;4.712;2023-02-01T09:18:19;8.97;;;2.80;;
12363;SDS011;6246;50.826;4.712;2023-02-01T09:20:45;5.43;;;2.87;;
12363;SDS011;6246;50.826;4.712;2023-02-01T09:23:11;11.03;;;2.73;;
12363;SDS011;6246;50.826;4.712;2023-02-01T09:25:38;9.83;;;2.80;;
12363;SDS011;6246;50.826;4.712;2023-02-01T09:28:04;7.27;;;2.47;;
12363;SDS011;6246;50.826;4.712;2023-02-01T09:30:33;5.13;;;2.60;;
12363;SDS011;6246;50.826;4.712;2023-02-01T09:32:59;5.13;;;2.30;;
12363;SDS011;6246;50.826;4.712;2023-02-01T09:35:25;8.87;;;2.17;;
12363;SDS011;6246;50.826;4.712;2023-02-01T09:37:52;5.23;;;2.60;;
12363;SDS011;6246;50.826;4.712;2023-02-01T09:40:18;11.93;;;2.67;;
12363;SDS011;6246;50.826;4.712;2023-02-01T09:43:04;10.37;;;2.80;;
12363;SDS011;6246;50.826;4.712;2023-02-01T09:45:47;5.60;;;2.53;;
12363;SDS011;6246;50.826;4.712;2023-02-01T09:48:17;4.63;;;2.00;;
12363;SDS011;6246;50.826;4.712;2023-02-01T09:50:46;8.20;;;2.27;;
12363;SDS011;6246;50.826;4.712;2023-02-01T09:56:02;7.67;;;2.70;;
12363;SDS011;6246;50.826;4.712;2023-02-01T10:01:19;5.17;;;2.13;;
12363;SDS011;6246;50.826;4.712;2023-02-01T10:03:46;4.13;;;2.70;;
12363;SDS011;6246;50.826;4.712;2023-02-01T10:06:28;4.93;;;2.57;;
12363;SDS011;6246;50.826;4.712;2023-02-01T10:09:01;2.60;;;1.73;;
12363;SDS011;6246;50.826;4.712;2023-02-01T10:16:47;4.80;;;2.40;;
12363;SDS011;6246;50.826;4.712;2023-02-01T10:19:18;7.00;;;2.40;;
12363;SDS011;6246;50.826;4.712;2023-02-01T10:21:51;4.60;;;2.47;;
12363;SDS011;6246;50.826;4.712;2023-02-01T10:27:19;7.53;;;3.13;;
12363;SDS011;6246;50.826;4.712;2023-02-01T10:29:58;5.60;;;2.37;;
12363;SDS011;6246;50.826;4.712;2023-02-01T10:32:32;3.80;;;1.97;;
12363;SDS011;6246;50.826;4.712;2023-02-01T10:35:23;4.83;;;2.17;;
12363;SDS011;6246;50.826;4.712;2023-02-01T10:37:48;3.73;;;1.87;;
12363;SDS011;6246;50.826;4.712;2023-02-01T10:40:22;8.20;;;2.67;;
12363;SDS011;6246;50.826;4.712;2023-02-01T10:42:50;2.80;;;1.97;;
12363;SDS011;6246;50.826;4.712;2023-02-01T10:45:18;3.17;;;1.73;;
12363;SDS011;6246;50.826;4.712;2023-02-01T10:47:44;5.33;;;2.20;;
12363;SDS011;6246;50.826;4.712;2023-02-01T10:50:19;4.90;;;1.73;;
12363;SDS011;6246;50.826;4.712;2023-02-01T10:55:26;4.10;;;2.00;;
12363;SDS011;6246;50.826;4.712;2023-02-01T10:57:56;4.87;;;2.30;;
12363;SDS011;6246;50.826;4.712;2023-02-01T11:00:22;4.67;;;2.07;;
12363;SDS011;6246;50.826;4.712;2023-02-01T11:02:48;4.37;;;2.30;;
12363;SDS011;6246;50.826;4.712;2023-02-01T11:05:15;5.73;;;2.40;;
12363;SDS011;6246;50.826;4.712;2023-02-01T11:07:48;5.10;;;2.07;;
12363;SDS011;6246;50.826;4.712;2023-02-01T11:12:59;3.67;;;2.27;;
12363;SDS011;6246;50.826;4.712;2023-02-01T11:15:27;4.03;;;2.13;;
12363;SDS011;6246;50.826;4.712;2023-02-01T11:17:53;3.25;;;1.88;;
12363;SDS011;6246;50.826;4.712;2023-02-01T11:20:40;4.53;;;2.13;;
12363;SDS011;6246;50.826;4.712;2023-02-01T11:23:12;4.00;;;2.27;;
12363;SDS011;6246;50.826;4.712;2023-02-01T11:25:40;3.57;;;2.20;;
12363;SDS011;6246;50.826;4.712;2023-02-01T11:28:12;3.23;;;1.57;;
12363;SDS011;6246;50.826;4.712;2023-02-01T11:30:40;3.90;;;2.07;;
12363;SDS011;6246;50.826;4.712;2023-02-01T11:33:12;3.17;;;1.83;;
12363;SDS011;6246;50.826;4.712;2023-02-01T11:35:39;3.20;;;1.87;;
12363;SDS011;6246;50.826;4.712;2023-02-01T11:41:13;3.97;;;1.73;;
12363;SDS011;6246;50.826;4.712;2023-02-01T11:44:02;4.13;;;1.90;;
12363;SDS011;6246;50.826;4.712;2023-02-01T11:46:41;3.65;;;1.90;;
12363;SDS011;6246;50.826;4.712;2023-02-01T11:49:19;3.60;;;1.83;;
12363;SDS011;6246;50.826;4.712;2023-02-01T11:59:50;2.60;;;1.83;;
12363;SDS011;6246;50.826;4.712;2023-02-01T12:02:22;3.72;;;2.22;;
12363;SDS011;6246;50.826;4.712;2023-02-01T12:07:24;2.70;;;2.05;;
12363;SDS011;6246;50.826;4.712;2023-02-01T12:17:41;4.80;;;2.10;;
12363;SDS011;6246;50.826;4.712;2023-02-01T12:45:40;3.03;;;1.50;;
12363;SDS011;6246;50.826;4.712;2023-02-01T12:50:53;3.80;;;1.90;;
12363;SDS011;6246;50.826;4.712;2023-02-01T12:53:37;3.53;;;2.07;;
12363;SDS011;6246;50.826;4.712;2023-02-01T12:56:07;5.00;;;1.83;;
12363;SDS011;6246;50.826;4.712;2023-02-01T12:58:50;6.90;;;1.87;;
12363;SDS011;6246;50.826;4.712;2023-02-01T13:01:21;4.13;;;1.57;;
12363;SDS011;6246;50.826;4.712;2023-02-01T13:03:57;9.50;;;2.37;;
12363;SDS011;6246;50.826;4.712;2023-02-01T13:11:30;4.03;;;1.50;;
12363;SDS011;6246;50.826;4.712;2023-02-01T13:16:45;6.87;;;2.10;;
12363;SDS011;6246;50.826;4.712;2023-02-01T13:19:20;6.00;;;1.50;;
12363;SDS011;6246;50.826;4.712;2023-02-01T13:21:50;1.73;;;1.40;;
12363;SDS011;6246;50.826;4.712;2023-02-01T13:24:22;6.73;;;2.00;;
12363;SDS011;6246;50.826;4.712;2023-02-01T13:26:52;20.63;;;1.97;;
12363;SDS011;6246;50.826;4.712;2023-02-01T13:29:19;4.20;;;1.87;;
12363;SDS011;6246;50.826;4.712;2023-02-01T13:37:11;3.20;;;1.40;;
12363;SDS011;6246;50.826;4.712;2023-02-01T13:39:49;4.70;;;2.30;;
12363;SDS011;6246;50.826;4.712;2023-02-01T13:47:33;7.07;;;2.20;;
12363;SDS011;6246;50.826;4.712;2023-02-01T13:52:51;3.73;;;1.40;;
12363;SDS011;6246;50.826;4.712;2023-02-01T13:57:47;4.40;;;1.90;;
12363;SDS011;6246;50.826;4.712;2023-02-01T14:08:35;6.80;;;2.00;;
12363;SDS011;6246;50.826;4.712;2023-02-01T14:23:46;3.07;;;1.70;;
12363;SDS011;6246;50.826;4.712;2023-02-01T14:26:17;4.10;;;2.17;;
12363;SDS011;6246;50.826;4.712;2023-02-01T14:28:44;4.60;;;1.63;;
12363;SDS011;6246;50.826;4.712;2023-02-01T14:31:15;3.77;;;2.00;;
12363;SDS011;6246;50.826;4.712;2023-02-01T14:33:43;3.07;;;1.10;;
12363;SDS011;6246;50.826;4.712;2023-02-01T14:36:11;4.20;;;2.00;;
12363;SDS011;6246;50.826;4.712;2023-02-01T14:38:37;3.33;;;1.60;;
12363;SDS011;6246;50.826;4.712;2023-02-01T14:43:49;3.07;;;1.50;;
12363;SDS011;6246;50.826;4.712;2023-02-01T14:46:15;5.37;;;1.83;;
12363;SDS011;6246;50.826;4.712;2023-02-01T14:48:42;3.80;;;1.60;;
12363;SDS011;6246;50.826;4.712;2023-02-01T14:51:10;5.60;;;1.67;;
12363;SDS011;6246;50.826;4.712;2023-02-01T14:53:37;2.97;;;1.87;;
12363;SDS011;6246;50.826;4.712;2023-02-01T14:58:42;4.27;;;1.97;;
12363;SDS011;6246;50.826;4.712;2023-02-01T15:03:55;5.07;;;1.40;;
12363;SDS011;6246;50.826;4.712;2023-02-01T15:08:48;7.30;;;1.97;;
12363;SDS011;6246;50.826;4.712;2023-02-01T15:11:15;10.90;;;2.50;;
12363;SDS011;6246;50.826;4.712;2023-02-01T15:13:47;4.03;;;1.80;;
12363;SDS011;6246;50.826;4.712;2023-02-01T15:16:14;4.23;;;1.40;;
12363;SDS011;6246;50.826;4.712;2023-02-01T15:18:40;3.00;;;1.87;;
12363;SDS011;6246;50.826;4.712;2023-02-01T15:21:14;5.50;;;1.50;;
12363;SDS011;6246;50.826;4.712;2023-02-01T15:23:40;5.70;;;1.77;;
12363;SDS011;6246;50.826;4.712;2023-02-01T15:26:06;3.53;;;1.67;;
12363;SDS011;6246;50.826;4.712;2023-02-01T15:28:32;2.83;;;1.77;;
12363;SDS011;6246;50.826;4.712;2023-02-01T15:31:00;16.83;;;3.53;;
12363;SDS011;6246;50.826;4.712;2023-02-01T15:33:28;8.67;;;2.00;;
12363;SDS011;6246;50.826;4.712;2023-02-01T15:36:07;7.63;;;2.30;;
12363;SDS011;6246;50.826;4.712;2023-02-01T15:41:08;7.57;;;2.63;;
12363;SDS011;6246;50.826;4.712;2023-02-01T15:43:39;20.00;;;2.70;;
12363;SDS011;6246;50.826;4.712;2023-02-01T15:46:10;5.17;;;1.50;;
12363;SDS011;6246;50.826;4.712;2023-02-01T15:48:38;10.20;;;2.07;;
12363;SDS011;6246;50.826;4.712;2023-02-01T15:51:05;6.67;;;2.30;;
12363;SDS011;6246;50.826;4.712;2023-02-01T15:53:31;4.67;;;1.53;;
12363;SDS011;6246;50.826;4.712;2023-02-01T15:55:59;9.03;;;2.23;;
12363;SDS011;6246;50.826;4.712;2023-02-01T15:58:26;5.17;;;1.67;;
12363;SDS011;6246;50.826;4.712;2023-02-01T16:00:56;8.70;;;2.13;;
12363;SDS011;6246;50.826;4.712;2023-02-01T16:03:25;13.33;;;1.80;;
12363;SDS011;6246;50.826;4.712;2023-02-01T16:05:56;5.20;;;1.67;;
12363;SDS011;6246;50.826;4.712;2023-02-01T16:08:23;5.73;;;1.80;;
12363;SDS011;6246;50.826;4.712;2023-02-01T16:10:51;5.73;;;2.07;;
12363;SDS011;6246;50.826;4.712;2023-02-01T16:13:19;4.23;;;1.70;;
12363;SDS011;6246;50.826;4.712;2023-02-01T16:15:45;4.90;;;2.00;;
12363;SDS011;6246;50.826;4.712;2023-02-01T16:18:12;7.77;;;1.97;;
12363;SDS011;6246;50.826;4.712;2023-02-01T16:20:39;7.53;;;2.10;;
12363;SDS011;6246;50.826;4.712;2023-02-01T16:23:06;5.07;;;1.90;;
12363;SDS011;6246;50.826;4.712;2023-02-01T16:25:33;5.43;;;1.90;;
12363;SDS011;6246;50.826;4.712;2023-02-01T16:27:59;7.57;;;2.10;;
12363;SDS011;6246;50.826;4.712;2023-02-01T16:30:25;5.53;;;2.07;;
12363;SDS011;6246;50.826;4.712;2023-02-01T16:32:52;7.50;;;2.17;;
12363;SDS011;6246;50.826;4.712;2023-02-01T16:35:33;6.77;;;1.70;;
12363;SDS011;6246;50.826;4.712;2023-02-01T16:38:03;7.07;;;1.63;;
12363;SDS011;6246;50.826;4.712;2023-02-01T16:40:33;3.17;;;1.50;;
12363;SDS011;6246;50.826;4.712;2023-02-01T16:42:59;3.57;;;1.97;;
12363;SDS011;6246;50.826;4.712;2023-02-01T16:45:26;4.03;;;1.33;;
12363;SDS011;6246;50.826;4.712;2023-02-01T16:47:53;5.67;;;1.53;;
12363;SDS011;6246;50.826;4.712;2023-02-01T16:50:24;1.77;;;0.93;;
12363;SDS011;6246;50.826;4.712;2023-02-01T16:52:51;7.33;;;2.30;;
12363;SDS011;6246;50.826;4.712;2023-02-01T16:55:18;4.93;;;1.70;;
12363;SDS011;6246;50.826;4.712;2023-02-01T16:57:46;7.00;;;1.63;;
12363;SDS011;6246;50.826;4.712;2023-02-01T17:00:12;6.10;;;1.53;;
12363;SDS011;6246;50.826;4.712;2023-02-01T17:02:40;5.23;;;1.57;;
12363;SDS011;6246;50.826;4.712;2023-02-01T17:05:07;5.80;;;1.40;;
12363;SDS011;6246;50.826;4.712;2023-02-01T17:07:33;4.57;;;1.67;;
12363;SDS011;6246;50.826;4.712;2023-02-01T17:10:00;3.43;;;1.80;;
12363;SDS011;6246;50.826;4.712;2023-02-01T17:12:29;5.33;;;1.40;;
12363;SDS011;6246;50.826;4.712;2023-02-01T17:14:56;4.63;;;1.57;;
12363;SDS011;6246;50.826;4.712;2023-02-01T17:17:23;4.13;;;1.33;;
12363;SDS011;6246;50.826;4.712;2023-02-01T17:19:50;3.80;;;2.10;;
12363;SDS011;6246;50.826;4.712;2023-02-01T17:22:18;4.50;;;1.63;;
12363;SDS011;6246;50.826;4.712;2023-02-01T17:24:44;2.93;;;1.37;;
12363;SDS011;6246;50.826;4.712;2023-02-01T17:27:10;4.10;;;1.60;;
12363;SDS011;6246;50.826;4.712;2023-02-01T17:29:36;3.33;;;1.90;;
12363;SDS011;6246;50.826;4.712;2023-02-01T17:32:02;2.63;;;1.30;;
12363;SDS011;6246;50.826;4.712;2023-02-01T17:34:29;4.37;;;1.00;;
12363;SDS011;6246;50.826;4.712;2023-02-01T17:36:55;5.37;;;1.63;;
12363;SDS011;6246;50.826;4.712;2023-02-01T17:39:21;4.17;;;1.47;;
12363;SDS011;6246;50.826;4.712;2023-02-01T17:42:08;4.60;;;1.53;;
12363;SDS011;6246;50.826;4.712;2023-02-01T17:44:35;3.10;;;1.10;;